sensor_id;sensor_type;location;lat;lon;timestamp;temperature;humidity
13488;DHT22;6816;48.506;9.050;2024-01-25T00:02:44;10.70;99.90
13488;DHT22;6816;48.506;9.050;2024-01-25T00:05:45;10.70;99.90
13488;DHT22;6816;48.506;9.050;2024-01-25T00:08:45;10.70;99.90
13488;DHT22;6816;48.506;9.050;2024-01-25T00:11:46;10.70;99.90
13488;DHT22;6816;48.506;9.050;2024-01-25T00:14:47;10.70;99.90
13488;DHT22;6816;48.506;9.050;2024-01-25T00:17:47;10.70;99.90
13488;DHT22;6816;48.506;9.050;2024-01-25T00:20:48;10.70;99.90
13488;DHT22;6816;48.506;9.050;2024-01-25T00:23:49;10.70;99.90
13488;DHT22;6816;48.506;9.050;2024-01-25T00:26:49;10.70;99.90
13488;DHT22;6816;48.506;9.050;2024-01-25T00:29:50;10.70;99.90
13488;DHT22;6816;48.506;9.050;2024-01-25T00:32:51;10.60;99.90
13488;DHT22;6816;48.506;9.050;2024-01-25T00:35:51;10.80;99.90
13488;DHT22;6816;48.506;9.050;2024-01-25T00:38:53;10.70;99.90
13488;DHT22;6816;48.506;9.050;2024-01-25T00:41:58;10.60;99.90
13488;DHT22;6816;48.506;9.050;2024-01-25T00:45:02;10.60;99.90
13488;DHT22;6816;48.506;9.050;2024-01-25T00:48:02;10.60;99.90
13488;DHT22;6816;48.506;9.050;2024-01-25T00:51:07;10.60;99.90
13488;DHT22;6816;48.506;9.050;2024-01-25T00:54:08;10.60;99.90
13488;DHT22;6816;48.506;9.050;2024-01-25T00:57:09;10.60;99.90
13488;DHT22;6816;48.506;9.050;2024-01-25T01:00:10;10.60;99.90
13488;DHT22;6816;48.506;9.050;2024-01-25T01:03:12;10.60;99.90
13488;DHT22;6816;48.506;9.050;2024-01-25T01:06:14;10.60;99.90
13488;DHT22;6816;48.506;9.050;2024-01-25T01:09:15;10.50;99.90
13488;DHT22;6816;48.506;9.050;2024-01-25T01:12:15;10.60;99.90
13488;DHT22;6816;48.506;9.050;2024-01-25T01:15:17;10.60;99.90
13488;DHT22;6816;48.506;9.050;2024-01-25T01:18:18;10.50;99.90
13488;DHT22;6816;48.506;9.050;2024-01-25T01:21:18;10.50;99.90
13488;DHT22;6816;48.506;9.050;2024-01-25T01:24:21;10.50;99.90
13488;DHT22;6816;48.506;9.050;2024-01-25T01:27:22;10.50;99.90
13488;DHT22;6816;48.506;9.050;2024-01-25T01:30:22;10.50;99.90
13488;DHT22;6816;48.506;9.050;2024-01-25T01:33:23;10.60;99.90
13488;DHT22;6816;48.506;9.050;2024-01-25T01:36:24;10.60;99.90
13488;DHT22;6816;48.506;9.050;2024-01-25T01:39:24;10.60;99.90
13488;DHT22;6816;48.506;9.050;2024-01-25T01:42:27;10.60;99.90
13488;DHT22;6816;48.506;9.050;2024-01-25T01:45:28;10.60;99.90
13488;DHT22;6816;48.506;9.050;2024-01-25T01:48:29;10.70;99.90
13488;DHT22;6816;48.506;9.050;2024-01-25T01:51:31;10.70;99.90
13488;DHT22;6816;48.506;9.050;2024-01-25T01:54:32;10.70;99.90
13488;DHT22;6816;48.506;9.050;2024-01-25T01:57:33;10.70;99.90
13488;DHT22;6816;48.506;9.050;2024-01-25T02:00:34;10.70;99.90
13488;DHT22;6816;48.506;9.050;2024-01-25T02:03:34;10.70;99.90
13488;DHT22;6816;48.506;9.050;2024-01-25T02:06:35;10.80;99.90
13488;DHT22;6816;48.506;9.050;2024-01-25T02:09:35;10.80;99.90
13488;DHT22;6816;48.506;9.050;2024-01-25T02:12:36;10.80;99.90
13488;DHT22;6816;48.506;9.050;2024-01-25T02:15:38;10.80;99.90
13488;DHT22;6816;48.506;9.050;2024-01-25T02:18:39;10.80;99.90
13488;DHT22;6816;48.506;9.050;2024-01-25T02:21:40;10.80;99.90
13488;DHT22;6816;48.506;9.050;2024-01-25T02:24:40;10.80;99.90
13488;DHT22;6816;48.506;9.050;2024-01-25T02:27:41;10.80;99.90
13488;DHT22;6816;48.506;9.050;2024-01-25T02:30:41;11.00;99.90
13488;DHT22;6816;48.506;9.050;2024-01-25T02:33:42;10.80;99.90
13488;DHT22;6816;48.506;9.050;2024-01-25T02:36:42;10.80;99.90
13488;DHT22;6816;48.506;9.050;2024-01-25T02:39:44;10.80;99.90
13488;DHT22;6816;48.506;9.050;2024-01-25T02:42:45;10.80;99.90
13488;DHT22;6816;48.506;9.050;2024-01-25T02:45:45;10.90;99.90
13488;DHT22;6816;48.506;9.050;2024-01-25T02:48:46;10.90;99.90
13488;DHT22;6816;48.506;9.050;2024-01-25T02:51:47;10.90;99.90
13488;DHT22;6816;48.506;9.050;2024-01-25T02:54:47;10.90;99.90
13488;DHT22;6816;48.506;9.050;2024-01-25T02:57:49;10.90;99.90
13488;DHT22;6816;48.506;9.050;2024-01-25T03:00:50;11.00;99.90
13488;DHT22;6816;48.506;9.050;2024-01-25T03:03:50;10.90;99.90
13488;DHT22;6816;48.506;9.050;2024-01-25T03:06:51;10.90;99.90
13488;DHT22;6816;48.506;9.050;2024-01-25T03:09:51;10.90;99.90
13488;DHT22;6816;48.506;9.050;2024-01-25T03:12:52;11.00;99.90
13488;DHT22;6816;48.506;9.050;2024-01-25T03:15:52;11.10;99.90
13488;DHT22;6816;48.506;9.050;2024-01-25T03:18:53;10.90;99.90
13488;DHT22;6816;48.506;9.050;2024-01-25T03:21:54;11.00;99.90
13488;DHT22;6816;48.506;9.050;2024-01-25T03:24:55;11.00;99.90
13488;DHT22;6816;48.506;9.050;2024-01-25T03:27:56;11.00;99.90
13488;DHT22;6816;48.506;9.050;2024-01-25T03:30:56;11.00;99.90
13488;DHT22;6816;48.506;9.050;2024-01-25T03:33:57;11.00;99.90
13488;DHT22;6816;48.506;9.050;2024-01-25T03:36:57;11.00;99.90
13488;DHT22;6816;48.506;9.050;2024-01-25T03:39:58;11.00;99.90
13488;DHT22;6816;48.506;9.050;2024-01-25T03:42:58;11.00;99.90
13488;DHT22;6816;48.506;9.050;2024-01-25T03:45:59;11.00;99.90
13488;DHT22;6816;48.506;9.050;2024-01-25T03:49:00;11.00;99.90
13488;DHT22;6816;48.506;9.050;2024-01-25T03:52:00;11.00;99.90
13488;DHT22;6816;48.506;9.050;2024-01-25T03:55:01;11.00;99.90
13488;DHT22;6816;48.506;9.050;2024-01-25T03:58:01;11.00;99.90
13488;DHT22;6816;48.506;9.050;2024-01-25T04:01:02;10.90;99.90
13488;DHT22;6816;48.506;9.050;2024-01-25T04:04:03;10.90;99.90
13488;DHT22;6816;48.506;9.050;2024-01-25T04:07:04;10.90;99.90
13488;DHT22;6816;48.506;9.050;2024-01-25T04:10:04;10.90;99.90
13488;DHT22;6816;48.506;9.050;2024-01-25T04:13:05;10.80;99.90
13488;DHT22;6816;48.506;9.050;2024-01-25T04:16:07;10.80;99.90
13488;DHT22;6816;48.506;9.050;2024-01-25T04:19:08;10.80;99.90
13488;DHT22;6816;48.506;9.050;2024-01-25T04:22:12;10.70;99.90
13488;DHT22;6816;48.506;9.050;2024-01-25T04:25:13;10.70;99.90
13488;DHT22;6816;48.506;9.050;2024-01-25T04:28:14;10.70;99.90
13488;DHT22;6816;48.506;9.050;2024-01-25T04:31:14;10.70;99.90
13488;DHT22;6816;48.506;9.050;2024-01-25T04:34:15;10.70;99.90
13488;DHT22;6816;48.506;9.050;2024-01-25T04:37:16;10.70;99.90
13488;DHT22;6816;48.506;9.050;2024-01-25T04:40:17;10.70;99.90
13488;DHT22;6816;48.506;9.050;2024-01-25T04:43:17;10.60;99.90
13488;DHT22;6816;48.506;9.050;2024-01-25T04:46:18;10.60;99.90
13488;DHT22;6816;48.506;9.050;2024-01-25T04:49:19;10.60;99.90
13488;DHT22;6816;48.506;9.050;2024-01-25T04:52:19;10.60;99.90
13488;DHT22;6816;48.506;9.050;2024-01-25T04:55:20;10.60;99.90
13488;DHT22;6816;48.506;9.050;2024-01-25T04:58:20;10.70;99.90
13488;DHT22;6816;48.506;9.050;2024-01-25T05:01:21;10.60;99.90
13488;DHT22;6816;48.506;9.050;2024-01-25T05:04:22;10.60;99.90
13488;DHT22;6816;48.506;9.050;2024-01-25T05:07:22;10.50;99.90
13488;DHT22;6816;48.506;9.050;2024-01-25T05:10:23;10.60;99.90
13488;DHT22;6816;48.506;9.050;2024-01-25T05:13:25;10.50;99.90
13488;DHT22;6816;48.506;9.050;2024-01-25T05:16:26;10.40;99.90
13488;DHT22;6816;48.506;9.050;2024-01-25T05:19:27;10.40;99.90
13488;DHT22;6816;48.506;9.050;2024-01-25T05:22:27;10.40;99.90
13488;DHT22;6816;48.506;9.050;2024-01-25T05:25:29;10.40;99.90
13488;DHT22;6816;48.506;9.050;2024-01-25T05:28:30;10.30;99.90
13488;DHT22;6816;48.506;9.050;2024-01-25T05:31:30;10.30;99.90
13488;DHT22;6816;48.506;9.050;2024-01-25T05:34:31;10.30;99.90
13488;DHT22;6816;48.506;9.050;2024-01-25T05:37:31;10.30;99.90
13488;DHT22;6816;48.506;9.050;2024-01-25T05:40:32;10.30;99.90
13488;DHT22;6816;48.506;9.050;2024-01-25T05:43:33;10.30;99.90
13488;DHT22;6816;48.506;9.050;2024-01-25T05:46:34;10.20;99.90
13488;DHT22;6816;48.506;9.050;2024-01-25T05:49:34;10.30;99.90
13488;DHT22;6816;48.506;9.050;2024-01-25T05:52:35;10.20;99.90
13488;DHT22;6816;48.506;9.050;2024-01-25T05:55:37;10.20;99.90
13488;DHT22;6816;48.506;9.050;2024-01-25T05:58:38;10.20;99.90
13488;DHT22;6816;48.506;9.050;2024-01-25T06:01:38;10.10;99.90
13488;DHT22;6816;48.506;9.050;2024-01-25T06:04:39;10.10;99.90
13488;DHT22;6816;48.506;9.050;2024-01-25T06:07:40;10.00;99.90
13488;DHT22;6816;48.506;9.050;2024-01-25T06:10:41;10.00;99.90
13488;DHT22;6816;48.506;9.050;2024-01-25T06:13:41;10.00;99.90
13488;DHT22;6816;48.506;9.050;2024-01-25T06:16:43;10.00;99.90
13488;DHT22;6816;48.506;9.050;2024-01-25T06:19:44;10.00;99.90
13488;DHT22;6816;48.506;9.050;2024-01-25T06:22:44;9.90;99.90
13488;DHT22;6816;48.506;9.050;2024-01-25T06:25:45;9.80;99.90
13488;DHT22;6816;48.506;9.050;2024-01-25T06:28:45;9.80;99.90
13488;DHT22;6816;48.506;9.050;2024-01-25T06:31:46;9.70;99.90
13488;DHT22;6816;48.506;9.050;2024-01-25T06:34:47;9.60;99.90
13488;DHT22;6816;48.506;9.050;2024-01-25T06:37:47;9.60;99.90
13488;DHT22;6816;48.506;9.050;2024-01-25T06:40:48;9.60;99.90
13488;DHT22;6816;48.506;9.050;2024-01-25T06:43:48;9.60;99.90
13488;DHT22;6816;48.506;9.050;2024-01-25T06:46:49;9.50;99.90
13488;DHT22;6816;48.506;9.050;2024-01-25T06:49:50;9.50;99.90
13488;DHT22;6816;48.506;9.050;2024-01-25T06:52:51;9.50;99.90
13488;DHT22;6816;48.506;9.050;2024-01-25T06:55:54;9.50;99.90
13488;DHT22;6816;48.506;9.050;2024-01-25T06:58:54;9.50;99.90
13488;DHT22;6816;48.506;9.050;2024-01-25T07:01:55;9.60;99.90
13488;DHT22;6816;48.506;9.050;2024-01-25T07:04:55;9.60;99.90
13488;DHT22;6816;48.506;9.050;2024-01-25T07:07:56;9.60;99.90
13488;DHT22;6816;48.506;9.050;2024-01-25T07:10:56;9.60;99.90
13488;DHT22;6816;48.506;9.050;2024-01-25T07:13:59;9.60;99.90
13488;DHT22;6816;48.506;9.050;2024-01-25T07:17:00;9.70;99.90
13488;DHT22;6816;48.506;9.050;2024-01-25T07:20:01;9.50;99.90
13488;DHT22;6816;48.506;9.050;2024-01-25T07:23:02;9.50;99.90
13488;DHT22;6816;48.506;9.050;2024-01-25T07:26:06;9.40;99.90
13488;DHT22;6816;48.506;9.050;2024-01-25T07:29:07;9.20;99.90
13488;DHT22;6816;48.506;9.050;2024-01-25T07:32:08;9.30;99.90
13488;DHT22;6816;48.506;9.050;2024-01-25T07:35:09;9.20;99.90
13488;DHT22;6816;48.506;9.050;2024-01-25T07:38:12;9.20;99.90
13488;DHT22;6816;48.506;9.050;2024-01-25T07:41:13;9.10;99.90
13488;DHT22;6816;48.506;9.050;2024-01-25T07:44:14;9.00;99.90
13488;DHT22;6816;48.506;9.050;2024-01-25T07:47:15;9.00;99.90
13488;DHT22;6816;48.506;9.050;2024-01-25T07:50:15;9.20;99.90
13488;DHT22;6816;48.506;9.050;2024-01-25T07:53:17;8.90;99.90
13488;DHT22;6816;48.506;9.050;2024-01-25T07:56:18;8.90;99.90
13488;DHT22;6816;48.506;9.050;2024-01-25T07:59:18;8.80;99.90
13488;DHT22;6816;48.506;9.050;2024-01-25T08:02:19;8.80;99.90
13488;DHT22;6816;48.506;9.050;2024-01-25T08:05:19;8.80;99.90
13488;DHT22;6816;48.506;9.050;2024-01-25T08:08:20;8.80;99.90
13488;DHT22;6816;48.506;9.050;2024-01-25T08:11:21;8.80;99.90
13488;DHT22;6816;48.506;9.050;2024-01-25T08:14:21;8.80;99.90
13488;DHT22;6816;48.506;9.050;2024-01-25T08:17:22;8.80;99.90
13488;DHT22;6816;48.506;9.050;2024-01-25T08:20:22;8.80;99.90
13488;DHT22;6816;48.506;9.050;2024-01-25T08:23:23;8.80;99.90
13488;DHT22;6816;48.506;9.050;2024-01-25T08:26:24;8.80;99.90
13488;DHT22;6816;48.506;9.050;2024-01-25T08:29:24;8.80;99.90
13488;DHT22;6816;48.506;9.050;2024-01-25T08:32:25;8.80;99.90
13488;DHT22;6816;48.506;9.050;2024-01-25T08:35:26;8.80;99.90
13488;DHT22;6816;48.506;9.050;2024-01-25T08:38:26;8.90;99.90
13488;DHT22;6816;48.506;9.050;2024-01-25T08:41:27;9.00;99.90
13488;DHT22;6816;48.506;9.050;2024-01-25T08:44:27;9.00;99.90
13488;DHT22;6816;48.506;9.050;2024-01-25T08:47:28;9.00;99.90
13488;DHT22;6816;48.506;9.050;2024-01-25T08:50:29;9.00;99.90
13488;DHT22;6816;48.506;9.050;2024-01-25T08:53:29;9.00;99.90
13488;DHT22;6816;48.506;9.050;2024-01-25T08:56:30;9.10;99.90
13488;DHT22;6816;48.506;9.050;2024-01-25T08:59:31;9.10;99.90
13488;DHT22;6816;48.506;9.050;2024-01-25T09:02:33;9.20;99.90
13488;DHT22;6816;48.506;9.050;2024-01-25T09:05:33;9.30;99.90
13488;DHT22;6816;48.506;9.050;2024-01-25T09:08:38;9.30;99.90
13488;DHT22;6816;48.506;9.050;2024-01-25T09:11:39;9.40;99.90
13488;DHT22;6816;48.506;9.050;2024-01-25T09:14:39;9.40;99.90
13488;DHT22;6816;48.506;9.050;2024-01-25T09:17:40;9.40;99.90
13488;DHT22;6816;48.506;9.050;2024-01-25T09:20:40;9.50;99.90
13488;DHT22;6816;48.506;9.050;2024-01-25T09:23:41;9.60;99.90
13488;DHT22;6816;48.506;9.050;2024-01-25T09:26:42;9.70;99.90
13488;DHT22;6816;48.506;9.050;2024-01-25T09:29:42;9.80;99.90
13488;DHT22;6816;48.506;9.050;2024-01-25T09:32:43;9.90;99.90
13488;DHT22;6816;48.506;9.050;2024-01-25T09:35:43;10.00;99.90
13488;DHT22;6816;48.506;9.050;2024-01-25T09:38:47;10.10;99.90
13488;DHT22;6816;48.506;9.050;2024-01-25T09:41:47;10.50;99.90
13488;DHT22;6816;48.506;9.050;2024-01-25T09:44:48;10.50;99.90
13488;DHT22;6816;48.506;9.050;2024-01-25T09:47:49;10.70;99.90
13488;DHT22;6816;48.506;9.050;2024-01-25T09:50:49;10.90;99.90
13488;DHT22;6816;48.506;9.050;2024-01-25T09:53:51;11.00;99.90
13488;DHT22;6816;48.506;9.050;2024-01-25T09:56:54;11.20;99.90
13488;DHT22;6816;48.506;9.050;2024-01-25T09:59:56;11.30;99.90
13488;DHT22;6816;48.506;9.050;2024-01-25T10:02:57;11.50;99.90
13488;DHT22;6816;48.506;9.050;2024-01-25T10:05:57;11.70;99.90
13488;DHT22;6816;48.506;9.050;2024-01-25T10:08:59;11.90;99.90
13488;DHT22;6816;48.506;9.050;2024-01-25T10:12:00;12.10;99.90
13488;DHT22;6816;48.506;9.050;2024-01-25T10:15:03;12.20;99.90
13488;DHT22;6816;48.506;9.050;2024-01-25T10:18:04;12.40;99.90
13488;DHT22;6816;48.506;9.050;2024-01-25T10:21:05;12.60;99.90
13488;DHT22;6816;48.506;9.050;2024-01-25T10:24:06;12.80;99.90
13488;DHT22;6816;48.506;9.050;2024-01-25T10:27:08;12.90;99.90
13488;DHT22;6816;48.506;9.050;2024-01-25T10:30:09;13.00;99.90
13488;DHT22;6816;48.506;9.050;2024-01-25T10:33:10;13.00;99.90
13488;DHT22;6816;48.506;9.050;2024-01-25T10:36:12;13.10;99.90
13488;DHT22;6816;48.506;9.050;2024-01-25T10:39:14;13.10;99.90
13488;DHT22;6816;48.506;9.050;2024-01-25T10:42:16;13.20;99.90
13488;DHT22;6816;48.506;9.050;2024-01-25T10:45:16;13.30;99.90
13488;DHT22;6816;48.506;9.050;2024-01-25T10:48:17;13.30;99.90
13488;DHT22;6816;48.506;9.050;2024-01-25T10:51:18;13.40;99.90
13488;DHT22;6816;48.506;9.050;2024-01-25T10:54:19;13.30;99.90
13488;DHT22;6816;48.506;9.050;2024-01-25T10:57:20;13.60;99.90
13488;DHT22;6816;48.506;9.050;2024-01-25T11:00:21;13.70;99.90
13488;DHT22;6816;48.506;9.050;2024-01-25T11:03:26;13.90;99.90
13488;DHT22;6816;48.506;9.050;2024-01-25T11:06:28;14.00;99.90
13488;DHT22;6816;48.506;9.050;2024-01-25T11:09:29;14.20;99.90
13488;DHT22;6816;48.506;9.050;2024-01-25T11:12:29;14.40;99.90
13488;DHT22;6816;48.506;9.050;2024-01-25T11:15:32;14.50;99.90
13488;DHT22;6816;48.506;9.050;2024-01-25T11:18:33;14.70;99.90
13488;DHT22;6816;48.506;9.050;2024-01-25T11:21:50;14.80;99.90
13488;DHT22;6816;48.506;9.050;2024-01-25T11:24:51;15.00;99.90
13488;DHT22;6816;48.506;9.050;2024-01-25T11:27:51;15.20;99.90
13488;DHT22;6816;48.506;9.050;2024-01-25T11:30:52;15.50;99.90
13488;DHT22;6816;48.506;9.050;2024-01-25T11:34:00;15.80;99.90
13488;DHT22;6816;48.506;9.050;2024-01-25T11:37:01;16.00;99.90
13488;DHT22;6816;48.506;9.050;2024-01-25T11:40:01;16.30;99.90
13488;DHT22;6816;48.506;9.050;2024-01-25T11:43:02;16.40;99.90
13488;DHT22;6816;48.506;9.050;2024-01-25T11:46:07;16.60;99.90
13488;DHT22;6816;48.506;9.050;2024-01-25T11:49:08;16.70;99.90
13488;DHT22;6816;48.506;9.050;2024-01-25T11:52:09;16.70;99.90
13488;DHT22;6816;48.506;9.050;2024-01-25T11:55:10;16.80;99.90
13488;DHT22;6816;48.506;9.050;2024-01-25T11:58:11;16.70;99.90
13488;DHT22;6816;48.506;9.050;2024-01-25T12:01:12;16.70;99.90
13488;DHT22;6816;48.506;9.050;2024-01-25T12:04:14;16.70;99.90
13488;DHT22;6816;48.506;9.050;2024-01-25T12:07:18;16.70;99.90
13488;DHT22;6816;48.506;9.050;2024-01-25T12:10:18;16.80;99.90
13488;DHT22;6816;48.506;9.050;2024-01-25T12:13:19;17.00;99.90
13488;DHT22;6816;48.506;9.050;2024-01-25T12:16:20;17.10;99.90
13488;DHT22;6816;48.506;9.050;2024-01-25T12:19:20;17.30;99.90
13488;DHT22;6816;48.506;9.050;2024-01-25T12:22:21;17.60;99.90
13488;DHT22;6816;48.506;9.050;2024-01-25T12:25:23;17.80;99.90
13488;DHT22;6816;48.506;9.050;2024-01-25T12:28:26;17.90;99.90
13488;DHT22;6816;48.506;9.050;2024-01-25T12:31:27;18.00;99.90
13488;DHT22;6816;48.506;9.050;2024-01-25T12:34:28;17.80;99.90
13488;DHT22;6816;48.506;9.050;2024-01-25T12:37:28;17.70;99.90
13488;DHT22;6816;48.506;9.050;2024-01-25T12:40:29;17.70;99.90
13488;DHT22;6816;48.506;9.050;2024-01-25T12:43:29;17.70;99.90
13488;DHT22;6816;48.506;9.050;2024-01-25T12:46:30;17.80;99.90
13488;DHT22;6816;48.506;9.050;2024-01-25T12:49:31;17.70;99.90
13488;DHT22;6816;48.506;9.050;2024-01-25T12:52:32;17.70;99.90
13488;DHT22;6816;48.506;9.050;2024-01-25T12:55:32;17.60;99.90
13488;DHT22;6816;48.506;9.050;2024-01-25T12:58:33;17.50;99.60
13488;DHT22;6816;48.506;9.050;2024-01-25T13:01:34;17.30;99.00
13488;DHT22;6816;48.506;9.050;2024-01-25T13:04:34;17.10;98.70
13488;DHT22;6816;48.506;9.050;2024-01-25T13:07:35;16.90;98.50
13488;DHT22;6816;48.506;9.050;2024-01-25T13:10:36;16.70;98.40
13488;DHT22;6816;48.506;9.050;2024-01-25T13:13:36;16.50;98.50
13488;DHT22;6816;48.506;9.050;2024-01-25T13:16:37;16.30;98.50
13488;DHT22;6816;48.506;9.050;2024-01-25T13:19:37;16.10;98.50
13488;DHT22;6816;48.506;9.050;2024-01-25T13:22:38;15.90;98.30
13488;DHT22;6816;48.506;9.050;2024-01-25T13:25:39;15.80;98.80
13488;DHT22;6816;48.506;9.050;2024-01-25T13:28:39;15.50;98.50
13488;DHT22;6816;48.506;9.050;2024-01-25T13:31:40;15.40;98.90
13488;DHT22;6816;48.506;9.050;2024-01-25T13:34:41;15.30;99.20
13488;DHT22;6816;48.506;9.050;2024-01-25T13:37:41;15.20;99.40
13488;DHT22;6816;48.506;9.050;2024-01-25T13:40:42;15.00;99.40
13488;DHT22;6816;48.506;9.050;2024-01-25T13:43:43;14.90;99.60
13488;DHT22;6816;48.506;9.050;2024-01-25T13:46:44;14.90;99.80
13488;DHT22;6816;48.506;9.050;2024-01-25T13:49:44;14.80;99.90
13488;DHT22;6816;48.506;9.050;2024-01-25T13:52:45;14.80;99.90
13488;DHT22;6816;48.506;9.050;2024-01-25T13:55:55;14.60;99.90
13488;DHT22;6816;48.506;9.050;2024-01-25T13:58:55;14.60;99.90
13488;DHT22;6816;48.506;9.050;2024-01-25T14:01:56;14.50;99.90
13488;DHT22;6816;48.506;9.050;2024-01-25T14:04:56;14.50;99.90
13488;DHT22;6816;48.506;9.050;2024-01-25T14:07:57;14.50;99.90
13488;DHT22;6816;48.506;9.050;2024-01-25T14:10:58;14.40;99.90
13488;DHT22;6816;48.506;9.050;2024-01-25T14:13:58;14.40;99.90
13488;DHT22;6816;48.506;9.050;2024-01-25T14:16:59;14.40;99.90
13488;DHT22;6816;48.506;9.050;2024-01-25T14:20:00;14.40;99.90
13488;DHT22;6816;48.506;9.050;2024-01-25T14:23:00;14.30;99.90
13488;DHT22;6816;48.506;9.050;2024-01-25T14:26:01;14.40;99.90
13488;DHT22;6816;48.506;9.050;2024-01-25T14:29:01;14.20;99.90
13488;DHT22;6816;48.506;9.050;2024-01-25T14:32:02;14.20;99.90
13488;DHT22;6816;48.506;9.050;2024-01-25T14:35:03;14.10;99.90
13488;DHT22;6816;48.506;9.050;2024-01-25T14:38:04;14.10;99.90
13488;DHT22;6816;48.506;9.050;2024-01-25T14:41:08;14.10;99.90
13488;DHT22;6816;48.506;9.050;2024-01-25T14:44:08;14.00;99.90
13488;DHT22;6816;48.506;9.050;2024-01-25T14:47:09;14.00;99.90
13488;DHT22;6816;48.506;9.050;2024-01-25T14:50:10;13.90;99.90
13488;DHT22;6816;48.506;9.050;2024-01-25T14:53:10;13.90;99.90
13488;DHT22;6816;48.506;9.050;2024-01-25T14:56:12;13.90;99.90
13488;DHT22;6816;48.506;9.050;2024-01-25T14:59:13;13.80;99.90
13488;DHT22;6816;48.506;9.050;2024-01-25T15:02:13;13.90;99.90
13488;DHT22;6816;48.506;9.050;2024-01-25T15:05:14;13.80;99.90
13488;DHT22;6816;48.506;9.050;2024-01-25T15:08:15;13.70;99.90
13488;DHT22;6816;48.506;9.050;2024-01-25T15:11:16;13.70;99.90
13488;DHT22;6816;48.506;9.050;2024-01-25T15:14:16;13.70;99.90
13488;DHT22;6816;48.506;9.050;2024-01-25T15:17:17;13.60;99.90
13488;DHT22;6816;48.506;9.050;2024-01-25T15:20:17;13.60;99.90
13488;DHT22;6816;48.506;9.050;2024-01-25T15:23:18;13.50;99.90
13488;DHT22;6816;48.506;9.050;2024-01-25T15:26:19;13.50;99.90
13488;DHT22;6816;48.506;9.050;2024-01-25T15:29:19;13.40;99.90
13488;DHT22;6816;48.506;9.050;2024-01-25T15:32:22;13.40;99.90
13488;DHT22;6816;48.506;9.050;2024-01-25T15:35:23;13.40;99.90
13488;DHT22;6816;48.506;9.050;2024-01-25T15:38:24;13.40;99.90
13488;DHT22;6816;48.506;9.050;2024-01-25T15:41:25;13.30;99.90
13488;DHT22;6816;48.506;9.050;2024-01-25T15:44:27;13.40;99.90
13488;DHT22;6816;48.506;9.050;2024-01-25T15:47:27;13.20;99.90
13488;DHT22;6816;48.506;9.050;2024-01-25T15:50:28;13.20;99.90
13488;DHT22;6816;48.506;9.050;2024-01-25T15:53:29;13.30;99.90
13488;DHT22;6816;48.506;9.050;2024-01-25T15:56:29;13.20;99.90
13488;DHT22;6816;48.506;9.050;2024-01-25T15:59:30;13.10;99.90
13488;DHT22;6816;48.506;9.050;2024-01-25T16:02:30;13.10;99.90
13488;DHT22;6816;48.506;9.050;2024-01-25T16:05:31;13.00;99.90
13488;DHT22;6816;48.506;9.050;2024-01-25T16:08:32;12.90;99.90
13488;DHT22;6816;48.506;9.050;2024-01-25T16:11:32;13.00;99.90
13488;DHT22;6816;48.506;9.050;2024-01-25T16:14:33;12.90;99.90
13488;DHT22;6816;48.506;9.050;2024-01-25T16:17:34;12.90;99.90
13488;DHT22;6816;48.506;9.050;2024-01-25T16:20:34;12.90;99.90
13488;DHT22;6816;48.506;9.050;2024-01-25T16:23:35;12.90;99.90
13488;DHT22;6816;48.506;9.050;2024-01-25T16:26:35;12.80;99.90
13488;DHT22;6816;48.506;9.050;2024-01-25T16:29:36;12.80;99.90
13488;DHT22;6816;48.506;9.050;2024-01-25T16:32:37;12.80;99.90
13488;DHT22;6816;48.506;9.050;2024-01-25T16:35:38;12.80;99.90
13488;DHT22;6816;48.506;9.050;2024-01-25T16:38:38;12.80;99.90
13488;DHT22;6816;48.506;9.050;2024-01-25T16:41:39;12.80;99.90
13488;DHT22;6816;48.506;9.050;2024-01-25T16:44:40;12.70;99.90
13488;DHT22;6816;48.506;9.050;2024-01-25T16:47:40;12.70;99.90
13488;DHT22;6816;48.506;9.050;2024-01-25T16:50:41;12.70;99.90
13488;DHT22;6816;48.506;9.050;2024-01-25T16:53:42;12.70;99.90
13488;DHT22;6816;48.506;9.050;2024-01-25T16:56:43;12.70;99.90
13488;DHT22;6816;48.506;9.050;2024-01-25T16:59:48;12.70;99.90
13488;DHT22;6816;48.506;9.050;2024-01-25T17:02:48;12.70;99.90
13488;DHT22;6816;48.506;9.050;2024-01-25T17:05:49;12.70;99.90
13488;DHT22;6816;48.506;9.050;2024-01-25T17:08:49;12.70;99.90
13488;DHT22;6816;48.506;9.050;2024-01-25T17:11:50;12.60;99.90
13488;DHT22;6816;48.506;9.050;2024-01-25T17:14:52;12.70;99.90
13488;DHT22;6816;48.506;9.050;2024-01-25T17:17:52;12.60;99.90
13488;DHT22;6816;48.506;9.050;2024-01-25T17:20:53;12.60;99.90
13488;DHT22;6816;48.506;9.050;2024-01-25T17:23:54;12.60;99.90
13488;DHT22;6816;48.506;9.050;2024-01-25T17:26:55;12.50;99.90
13488;DHT22;6816;48.506;9.050;2024-01-25T17:29:56;12.50;99.90
13488;DHT22;6816;48.506;9.050;2024-01-25T17:32:57;12.40;99.90
13488;DHT22;6816;48.506;9.050;2024-01-25T17:35:57;12.40;99.90
13488;DHT22;6816;48.506;9.050;2024-01-25T17:38:58;12.30;99.90
13488;DHT22;6816;48.506;9.050;2024-01-25T17:41:58;12.30;99.90
13488;DHT22;6816;48.506;9.050;2024-01-25T17:44:59;12.20;99.90
13488;DHT22;6816;48.506;9.050;2024-01-25T17:48:00;12.20;99.90
13488;DHT22;6816;48.506;9.050;2024-01-25T17:51:00;12.10;99.90
13488;DHT22;6816;48.506;9.050;2024-01-25T17:54:01;12.10;99.90
13488;DHT22;6816;48.506;9.050;2024-01-25T17:57:02;12.10;99.90
13488;DHT22;6816;48.506;9.050;2024-01-25T18:00:03;12.00;99.90
13488;DHT22;6816;48.506;9.050;2024-01-25T18:03:04;12.00;99.90
13488;DHT22;6816;48.506;9.050;2024-01-25T18:06:04;11.90;99.90
13488;DHT22;6816;48.506;9.050;2024-01-25T18:09:05;11.90;99.90
13488;DHT22;6816;48.506;9.050;2024-01-25T18:12:06;11.80;99.90
13488;DHT22;6816;48.506;9.050;2024-01-25T18:15:07;11.80;99.90
13488;DHT22;6816;48.506;9.050;2024-01-25T18:18:09;11.80;99.90
13488;DHT22;6816;48.506;9.050;2024-01-25T18:21:09;11.70;99.90
13488;DHT22;6816;48.506;9.050;2024-01-25T18:24:10;11.80;99.90
13488;DHT22;6816;48.506;9.050;2024-01-25T18:27:11;11.70;99.90
13488;DHT22;6816;48.506;9.050;2024-01-25T18:30:12;11.70;99.90
13488;DHT22;6816;48.506;9.050;2024-01-25T18:33:12;11.60;99.90
13488;DHT22;6816;48.506;9.050;2024-01-25T18:36:13;11.70;99.90
13488;DHT22;6816;48.506;9.050;2024-01-25T18:39:14;11.60;99.90
13488;DHT22;6816;48.506;9.050;2024-01-25T18:42:17;11.60;99.90
13488;DHT22;6816;48.506;9.050;2024-01-25T18:45:18;11.60;99.90
13488;DHT22;6816;48.506;9.050;2024-01-25T18:48:18;11.60;99.90
13488;DHT22;6816;48.506;9.050;2024-01-25T18:51:19;11.60;99.90
13488;DHT22;6816;48.506;9.050;2024-01-25T18:54:20;11.50;99.90
13488;DHT22;6816;48.506;9.050;2024-01-25T18:57:22;11.50;99.90
13488;DHT22;6816;48.506;9.050;2024-01-25T19:00:23;11.50;99.90
13488;DHT22;6816;48.506;9.050;2024-01-25T19:03:24;11.50;99.90
13488;DHT22;6816;48.506;9.050;2024-01-25T19:06:32;11.50;99.90
13488;DHT22;6816;48.506;9.050;2024-01-25T19:09:38;11.50;99.90
13488;DHT22;6816;48.506;9.050;2024-01-25T19:12:39;11.40;99.90
13488;DHT22;6816;48.506;9.050;2024-01-25T19:15:40;11.40;99.90
13488;DHT22;6816;48.506;9.050;2024-01-25T19:18:41;11.40;99.90
13488;DHT22;6816;48.506;9.050;2024-01-25T19:21:41;11.40;99.90
13488;DHT22;6816;48.506;9.050;2024-01-25T19:24:42;11.30;99.90
13488;DHT22;6816;48.506;9.050;2024-01-25T19:27:43;11.30;99.90